Station Historical Data
Daily Summary for June 5, 2017 Units:  Metric    English   Both
« Previous Day
Next Day »
Daily Weekly Monthly Yearly Custom
  High: Low: Average:
Temperature: 27.2 °C 20.9 °C 22.4 °C
Dew Point: 22.4 °C 19.8 °C 20.6 °C
Humidity: 95% 66% 90%
Wind Speed: 1.6km/h 0km/h 0km/h
Wind Gust: 8km/h - -
Wind- - SW
Pressure: 1013.1 hPa 1008 hPa -
Precipitation: 4.32 mm    
Historical Graphs
 
 
Tabular Data for June 5, 2017
Time Temperature Dew Point Pressure Wind Wind Speed Wind Gust Humidity Rainfall Rate (Hourly) solar Conditions
00:00 21.1 °C 19.9 °C 1013.1 hPa Calm   1.6 km/h 93% 0 mm WeatherDisplay:10.37 W/m2 RA
00:10 21.1 °C 19.9 °C 1013.1 hPa Calm   1.6 km/h 93% 0 mm WeatherDisplay:10.37 W/m2 SCT
00:20 21.1 °C 19.9 °C 1012.8 hPa Calm   1.6 km/h 93% 0 mm WeatherDisplay:10.37 W/m2 SCT
00:30 21 °C 19.8 °C 1012.8 hPa Calm     93% 0.25 mm WeatherDisplay:10.37 W/m2 SCT
00:40 20.9 °C 19.8 °C 1012.8 hPa Calm     93% 0 mm WeatherDisplay:10.37 W/m2 SCT
00:50 20.9 °C 19.8 °C 1012.8 hPa Calm     93% 0 mm WeatherDisplay:10.37 W/m2 SCT
01:00 20.9 °C 19.8 °C 1012.8 hPa Calm     93% 0 mm WeatherDisplay:10.37 W/m2 SCT
01:10 21 °C 19.8 °C 1012.8 hPa Calm     93% 0 mm WeatherDisplay:10.37 W/m2 SCT
01:20 21.1 °C 19.9 °C 1012.4 hPa Calm     93% 0 mm WeatherDisplay:10.37 W/m2 SCT
01:30 21.2 °C 20 °C 1012.4 hPa Calm     93% 0 mm WeatherDisplay:10.37 W/m2 SCT
01:40 21.2 °C 20 °C 1012.1 hPa Calm     93% 0 mm WeatherDisplay:10.37 W/m2 SCT
01:50 21.2 °C 20 °C 1012.1 hPa Calm   1.6 km/h 93% 0.25 mm WeatherDisplay:10.37 W/m2 SCT
02:00 21.2 °C 20 °C 1012.1 hPa Calm     93% 0 mm WeatherDisplay:10.37 W/m2 SCT
02:10 21.2 °C 20.1 °C 1012.1 hPa Calm   1.6 km/h 93% 0 mm WeatherDisplay:10.37 W/m2 SCT
02:20 21.2 °C 20.1 °C 1011.7 hPa Calm   1.6 km/h 93% 0 mm WeatherDisplay:10.37 W/m2 SCT
02:30 21.2 °C 20.2 °C 1011.7 hPa Calm     94% 0 mm WeatherDisplay:10.37 W/m2 SCT
02:40 21.2 °C 20.2 °C 1011.7 hPa Calm     94% 0 mm WeatherDisplay:10.37 W/m2 SCT
02:50 21.2 °C 20.2 °C 1011.7 hPa Calm     94% 0 mm WeatherDisplay:10.37 W/m2 SCT
03:00 21.2 °C 20.2 °C 1011.7 hPa Calm     94% 0 mm WeatherDisplay:10.37 W/m2 SCT
03:10 21.2 °C 20.2 °C 1011.4 hPa Calm     94% 0 mm WeatherDisplay:10.37 W/m2 SCT
03:20 21.2 °C 20.2 °C 1011.4 hPa Calm     94% 0 mm WeatherDisplay:10.37 W/m2 SCT
03:30 20.9 °C 20.1 °C 1011.4 hPa Calm     95% 0 mm WeatherDisplay:10.37 W/m2 SCT
03:40 20.9 °C 20.1 °C 1011.1 hPa Calm     95% 0 mm WeatherDisplay:10.37 W/m2 SCT
03:50 20.9 °C 20.1 °C 1011.1 hPa Calm     95% 0 mm WeatherDisplay:10.37 W/m2 SCT
04:00 20.9 °C 20.1 °C 1011.1 hPa Calm     95% 0 mm WeatherDisplay:10.37 W/m2 SCT
04:10 20.9 °C 20.1 °C 1011.1 hPa Calm     95% 0 mm WeatherDisplay:10.37 W/m2 SCT
04:20 20.9 °C 20.1 °C 1011.1 hPa Calm     95% 0 mm WeatherDisplay:10.37 W/m2 SCT
04:30 20.9 °C 20.1 °C 1011.1 hPa Calm     95% 0 mm WeatherDisplay:10.37 W/m2 SCT
04:40 20.9 °C 20.1 °C 1011.1 hPa Calm     95% 0 mm WeatherDisplay:10.37 W/m2 SCT
04:50 20.9 °C 20.1 °C 1011.1 hPa Calm     95% 0 mm WeatherDisplay:10.37 W/m2 SCT
05:00 20.9 °C 20.1 °C 1010.7 hPa Calm     95% 0 mm WeatherDisplay:10.37 W/m2 SCT
05:10 20.9 °C 20.1 °C 1010.7 hPa Calm     95% 0 mm WeatherDisplay:10.37 W/m2 SCT
05:20 20.9 °C 20.1 °C 1010.7 hPa Calm     95% 0 mm WeatherDisplay:10.37 W/m2 SCT
05:30 20.9 °C 20.1 °C 1011.1 hPa Calm     95% 0 mm WeatherDisplay:10.37 W/m2 SCT
05:40 20.9 °C 20.1 °C 1010.7 hPa Calm     95% 0 mm WeatherDisplay:10.37 W/m2 SCT
05:50 20.9 °C 20.1 °C 1011.1 hPa Calm     95% 0 mm WeatherDisplay:10.37 W/m2 SCT
06:00 20.9 °C 20.1 °C 1011.1 hPa Calm     95% 0 mm WeatherDisplay:10.37 W/m2 SCT
06:10 20.9 °C 20.1 °C 1011.1 hPa Calm     95% 0 mm WeatherDisplay:10.37 W/m2 SCT
06:20 20.9 °C 20.1 °C 1011.4 hPa Calm     95% 0 mm WeatherDisplay:10.37 W/m2 SCT
06:30 20.9 °C 20.1 °C 1011.4 hPa Calm     95% 0 mm WeatherDisplay:10.37 W/m2 SCT
06:40 20.9 °C 20.1 °C 1011.4 hPa Calm     95% 0 mm WeatherDisplay:10.37 W/m2 SCT
06:50 20.9 °C 20.1 °C 1011.4 hPa Calm     95% 0 mm WeatherDisplay:10.37 W/m2 SCT
07:00 20.9 °C 20.1 °C 1011.4 hPa Calm     95% 0 mm WeatherDisplay:10.37 W/m2 SCT
07:10 20.9 °C 20.1 °C 1011.4 hPa Calm     95% 0 mm WeatherDisplay:10.37 W/m2 SCT
07:20 20.9 °C 20.1 °C 1011.4 hPa Calm     95% 0 mm WeatherDisplay:10.37 W/m2 SCT
07:30 20.9 °C 20.1 °C 1011.4 hPa Calm     95% 0 mm WeatherDisplay:10.37 W/m2 SCT
07:40 20.9 °C 20.1 °C 1011.4 hPa Calm     95% 0 mm WeatherDisplay:10.37 W/m2 SCT
07:50 20.9 °C 20.1 °C 1011.4 hPa Calm     95% 0 mm WeatherDisplay:10.37 W/m2 SCT
08:00 20.9 °C 20.1 °C 1011.4 hPa Calm     95% 0 mm WeatherDisplay:10.37 W/m2 SCT
08:10 20.9 °C 20.1 °C 1011.4 hPa Calm     95% 0 mm WeatherDisplay:10.37 W/m2 SCT
08:20 21.3 °C 20.3 °C 1011.4 hPa Calm     94% 0 mm WeatherDisplay:10.37 W/m2 SCT
08:30 21.6 °C 20.6 °C 1011.4 hPa Calm   1.6 km/h 94% 0 mm WeatherDisplay:10.37 W/m2 SCT
08:40 21.7 °C 20.7 °C 1011.4 hPa Calm   1.6 km/h 94% 0 mm WeatherDisplay:10.37 W/m2 SCT
08:50 21.7 °C 20.7 °C 1011.4 hPa Calm     94% 0 mm WeatherDisplay:10.37 W/m2 SCT
09:00 21.8 °C 20.8 °C 1011.7 hPa Calm   1.6 km/h 94% 0 mm WeatherDisplay:10.37 W/m2 SCT
09:10 21.8 °C 20.8 °C 1011.4 hPa Calm   1.6 km/h 94% 0 mm WeatherDisplay:10.37 W/m2 SCT
09:20 21.9 °C 20.9 °C 1011.4 hPa Calm   1.6 km/h 94% 0 mm WeatherDisplay:10.37 W/m2 SCT
09:30 22.1 °C 21.1 °C 1011.4 hPa Calm   1.6 km/h 94% 0 mm WeatherDisplay:10.37 W/m2 SCT
09:40 22.2 °C 21.2 °C 1011.4 hPa Calm     94% 0 mm WeatherDisplay:10.37 W/m2 SCT
09:50 22.3 °C 21.1 °C 1011.4 hPa Calm   1.6 km/h 93% 0 mm WeatherDisplay:10.37 W/m2 SCT
10:00 22.4 °C 21.3 °C 1011.4 hPa Calm     93% 0 mm WeatherDisplay:10.37 W/m2 SCT
10:10 22.4 °C 21.3 °C 1011.4 hPa Calm     93% 0 mm WeatherDisplay:10.37 W/m2 SCT
10:20 22.6 °C 21.2 °C 1011.4 hPa Calm   3.2 km/h 92% 0 mm WeatherDisplay:10.37 W/m2 SCT
10:30 22.7 °C 21.3 °C 1011.4 hPa Calm   1.6 km/h 92% 0 mm WeatherDisplay:10.37 W/m2 SCT
10:40 23.1 °C 21.5 °C 1011.4 hPa NNW 1.6 km/h 3.2 km/h 91% 0 mm WeatherDisplay:10.37 W/m2 SCT
10:50 23.3 °C 21.6 °C 1011.1 hPa Calm   3.2 km/h 90% 0 mm WeatherDisplay:10.37 W/m2 SCT
11:00 23.6 °C 21.6 °C 1011.1 hPa Calm   1.6 km/h 89% 0 mm WeatherDisplay:10.37 W/m2 SCT
11:10 23.5 °C 21.6 °C 1011.1 hPa Calm   1.6 km/h 89% 0 mm WeatherDisplay:10.37 W/m2 SCT
11:20 23.4 °C 21.4 °C 1011.1 hPa Calm   3.2 km/h 88% 0 mm WeatherDisplay:10.37 W/m2 SCT
11:30 23.2 °C 21.3 °C 1011.1 hPa Calm   1.6 km/h 89% 0 mm WeatherDisplay:10.37 W/m2 SCT
11:40 23.1 °C 21.3 °C 1011.1 hPa Calm     90% 0 mm WeatherDisplay:10.37 W/m2 SCT
11:50 23.3 °C 21.7 °C 1011.1 hPa Calm   3.2 km/h 91% 0 mm WeatherDisplay:10.37 W/m2 SCT
12:00 23.4 °C 21.5 °C 1010.7 hPa Calm   1.6 km/h 89% 0 mm WeatherDisplay:10.37 W/m2 SCT
12:10 23.7 °C 21.6 °C 1010.7 hPa Calm   4.8 km/h 88% 0 mm WeatherDisplay:10.37 W/m2 SCT
12:20 24.1 °C 22 °C 1010.4 hPa Calm   4.8 km/h 88% 0 mm WeatherDisplay:10.37 W/m2 SCT
12:30 24.2 °C 21.9 °C 1010.4 hPa Calm   1.6 km/h 87% 0 mm WeatherDisplay:10.37 W/m2 SCT
12:40 24.5 °C 22.2 °C 1010.4 hPa Calm     87% 0 mm WeatherDisplay:10.37 W/m2 SCT
12:50 24.6 °C 21.7 °C 1010.4 hPa Calm   1.6 km/h 84% 0 mm WeatherDisplay:10.37 W/m2 SCT
13:00 24.6 °C 22.1 °C 1010 hPa Calm   1.6 km/h 86% 0 mm WeatherDisplay:10.37 W/m2 SCT
13:10 24.4 °C 21.9 °C 1010 hPa Calm     86% 0 mm WeatherDisplay:10.37 W/m2 SCT
13:20 24.6 °C 21.9 °C 1010 hPa Calm   1.6 km/h 85% 0 mm WeatherDisplay:10.37 W/m2 SCT
13:30 25.4 °C 21.7 °C 1009.7 hPa WSW 1.6 km/h 4.8 km/h 80% 0 mm WeatherDisplay:10.37 W/m2 SCT
13:40 25.9 °C 22.4 °C 1009.7 hPa Calm   4.8 km/h 81% 0 mm WeatherDisplay:10.37 W/m2 SCT
13:50 26.6 °C 22.2 °C 1009.4 hPa Calm   4.8 km/h 77% 0 mm WeatherDisplay:10.37 W/m2 SCT
14:00 26.8 °C 21.3 °C 1009.4 hPa North 1.6 km/h 4.8 km/h 72% 0 mm WeatherDisplay:10.37 W/m2 SCT
14:10 27.1 °C 22.3 °C 1009.4 hPa Calm   4.8 km/h 75% 0 mm WeatherDisplay:10.37 W/m2 SCT
14:20 27.2 °C 21.2 °C 1009.4 hPa Calm   3.2 km/h 70% 0 mm WeatherDisplay:10.37 W/m2 SCT
14:30 26.4 °C 21.2 °C 1009 hPa Calm   3.2 km/h 73% 0 mm WeatherDisplay:10.37 W/m2 SCT
14:40 26.6 °C 21.8 °C 1009 hPa Calm   3.2 km/h 75% 0 mm WeatherDisplay:10.37 W/m2 SCT
14:50 26.7 °C 21.3 °C 1009 hPa Calm   1.6 km/h 72% 0 mm WeatherDisplay:10.37 W/m2 SCT
15:00 26.8 °C 21.8 °C 1009 hPa Calm   4.8 km/h 74% 0 mm WeatherDisplay:10.37 W/m2 SCT
15:10 26.6 °C 21.6 °C 1009 hPa Calm   3.2 km/h 74% 0 mm WeatherDisplay:10.37 W/m2 SCT
15:20 26.6 °C 21.6 °C 1009 hPa Calm   4.8 km/h 74% 0 mm WeatherDisplay:10.37 W/m2 SCT
15:30 26.8 °C 22 °C 1009 hPa Calm   3.2 km/h 75% 0 mm WeatherDisplay:10.37 W/m2 SCT
15:40 26.9 °C 21.3 °C 1008.7 hPa WSW 1.6 km/h 3.2 km/h 71% 0 mm WeatherDisplay:10.37 W/m2 SCT
15:50 27 °C 21.5 °C 1008.7 hPa Calm   4.8 km/h 72% 0 mm WeatherDisplay:10.37 W/m2 SCT
16:00 27.2 °C 20.5 °C 1008.4 hPa Calm   8 km/h 67% 0 mm WeatherDisplay:10.37 W/m2 SCT
16:10 27 °C 20.1 °C 1008.4 hPa Calm   3.2 km/h 66% 0 mm WeatherDisplay:10.37 W/m2 SCT
16:20 26.8 °C 20.4 °C 1008 hPa Calm   3.2 km/h 68% 0 mm WeatherDisplay:10.37 W/m2 SCT
16:30 26.3 °C 20.4 °C 1008.7 hPa West 1.6 km/h 4.8 km/h 70% 0 mm WeatherDisplay:10.37 W/m2 SCT
16:40 24.8 °C 19.8 °C 1008.7 hPa WNW 1.6 km/h 8 km/h 74% 0 mm WeatherDisplay:10.37 W/m2 SCT
16:50 23.5 °C 20.3 °C 1008.7 hPa Calm   4.8 km/h 82% 1.52 mm WeatherDisplay:10.37 W/m2 RA
17:00 22.5 °C 20.4 °C 1008.7 hPa Calm   3.2 km/h 88% 2.03 mm WeatherDisplay:10.37 W/m2 RA
17:10 22.3 °C 20.6 °C 1009 hPa Calm   1.6 km/h 90% 0.25 mm WeatherDisplay:10.37 W/m2 SCT
17:20 22.3 °C 20.8 °C 1009 hPa Calm   1.6 km/h 91% 0 mm WeatherDisplay:10.37 W/m2 SCT
17:30 22.3 °C 20.7 °C 1009 hPa Calm   1.6 km/h 91% 0 mm WeatherDisplay:10.37 W/m2 SCT
17:40 22.1 °C 20.6 °C 1009.4 hPa Calm   1.6 km/h 91% 0 mm WeatherDisplay:10.37 W/m2 SCT
17:50 22.1 °C 20.6 °C 1009 hPa Calm     91% 0 mm WeatherDisplay:10.37 W/m2 SCT
18:00 22.1 °C 20.6 °C 1009 hPa Calm   1.6 km/h 91% 0 mm WeatherDisplay:10.37 W/m2 SCT
18:10 22.2 °C 20.7 °C 1008.7 hPa Calm     91% 0 mm WeatherDisplay:10.37 W/m2 SCT
18:20 22.3 °C 20.8 °C 1008.4 hPa Calm   1.6 km/h 91% 0 mm WeatherDisplay:10.37 W/m2 SCT
18:30 22.2 °C 20.4 °C 1008.4 hPa Calm     90% 0 mm WeatherDisplay:10.37 W/m2 SCT
18:40 22.2 °C 20.7 °C 1008.4 hPa Calm     91% 0 mm WeatherDisplay:10.37 W/m2 SCT
18:50 22.2 °C 20.6 °C 1008.4 hPa Calm   1.6 km/h 91% 0 mm WeatherDisplay:10.37 W/m2 SCT
19:00 22 °C 20.4 °C 1008.4 hPa Calm     91% 0 mm WeatherDisplay:10.37 W/m2 SCT
19:10 22 °C 20.4 °C 1008.4 hPa Calm     91% 0 mm WeatherDisplay:10.37 W/m2 SCT
19:20 21.9 °C 20.3 °C 1008.7 hPa Calm   1.6 km/h 91% 0 mm WeatherDisplay:10.37 W/m2 SCT
19:30 21.9 °C 20.3 °C 1008.7 hPa Calm     91% 0 mm WeatherDisplay:10.37 W/m2 SCT
19:40 21.9 °C 20.6 °C 1009 hPa Calm     92% 0 mm WeatherDisplay:10.37 W/m2 SCT
19:50 21.9 °C 20.6 °C 1009 hPa Calm     92% 0 mm WeatherDisplay:10.37 W/m2 SCT
20:00 21.9 °C 20.6 °C 1009 hPa Calm     92% 0 mm WeatherDisplay:10.37 W/m2 SCT
20:10 21.9 °C 20.6 °C 1009 hPa Calm     92% 0 mm WeatherDisplay:10.37 W/m2 SCT
20:20 21.8 °C 20.5 °C 1009 hPa Calm     92% 0 mm WeatherDisplay:10.37 W/m2 SCT
20:30 21.7 °C 20.4 °C 1009 hPa Calm     92% 0 mm WeatherDisplay:10.37 W/m2 SCT
20:40 21.7 °C 20.3 °C 1008.7 hPa Calm     92% 0 mm WeatherDisplay:10.37 W/m2 SCT
20:50 21.6 °C 20.2 °C 1009 hPa Calm     92% 0 mm WeatherDisplay:10.37 W/m2 SCT
21:00 21.4 °C 20.1 °C 1009 hPa Calm     92% 0 mm WeatherDisplay:10.37 W/m2 SCT
21:10 21.3 °C 20 °C 1009 hPa Calm     92% 0 mm WeatherDisplay:10.37 W/m2 SCT
21:30 21.2 °C 19.9 °C 1009.4 hPa Calm     92% 0 mm WeatherDisplay:10.37 W/m2 SCT
21:40 21.2 °C 19.9 °C 1009.4 hPa Calm     92% 0 mm WeatherDisplay:10.37 W/m2 SCT
21:50 21.2 °C 20 °C 1009.4 hPa Calm     93% 0 mm WeatherDisplay:10.37 W/m2 SCT
22:00 21.2 °C 20 °C 1009.4 hPa Calm     93% 0 mm WeatherDisplay:10.37 W/m2 SCT
22:10 21.2 °C 20 °C 1009.4 hPa Calm     93% 0 mm WeatherDisplay:10.37 W/m2 SCT
22:20 21.2 °C 20 °C 1009.7 hPa Calm     93% 0 mm WeatherDisplay:10.37 W/m2 SCT
22:30 21.2 °C 20 °C 1009.7 hPa Calm     93% 0 mm WeatherDisplay:10.37 W/m2 SCT
22:40 21.2 °C 20 °C 1009.7 hPa Calm     93% 0 mm WeatherDisplay:10.37 W/m2 SCT
22:50 21.1 °C 19.9 °C 1010 hPa Calm     93% 0 mm WeatherDisplay:10.37 W/m2 SCT
23:00 21.1 °C 19.9 °C 1010 hPa Calm     93% 0 mm WeatherDisplay:10.37 W/m2 SCT
23:10 21 °C 19.8 °C 1010 hPa Calm     93% 0 mm WeatherDisplay:10.37 W/m2 SCT
23:20 20.9 °C 19.8 °C 1010 hPa Calm     93% 0 mm WeatherDisplay:10.37 W/m2 SCT
23:30 20.9 °C 19.8 °C 1010 hPa Calm     93% 0 mm WeatherDisplay:10.37 W/m2 SCT
23:40 20.9 °C 19.8 °C 1010 hPa Calm     93% 0 mm WeatherDisplay:10.37 W/m2 SCT
23:50 20.9 °C 19.8 °C 1010 hPa Calm     93% 0 mm WeatherDisplay:10.37 W/m2 SCT
Piedmont Bend
Compliments of Weather Underground - 4 mb